DIYO

Yamoussoukro Airport

Yamoussoukro, Côte D’Ivoire
TAF DIYO 210921Z 2109/2206 23007KT 8000 BKN010 PROB40 2114/2120 BKN012 FEW020CB PROB30 TEMPO 2115/2120 TS PROB40 2204/2206 4000 BR
Issued Valid From Valid To
Jul-21 @ 09:21 UTC
(29 minutes ago)
Jul-21 @ 09:00 UTC
(50 minutes ago)
Jul-22 @ 06:00 UTC
(in 20 hours)
Jul-21 @ 09:00 to Jul-22 @ 06:00
TAF DIYO 210921Z 2109/2206 23007KT 8000 BKN010
Wind Visibility Clouds
230° at 7 knots 7,998 meters
  • Broken at 1,000' AGL
Probable  (Probability 40%) Jul-21 @ 14:00 to Jul-21 @ 20:00
PROB40 2114/2120 BKN012 FEW020CB
Clouds
  • Broken at 1,200' AGL
  • Few at 2,000' AGL
Temporary  (Probability 30%) Jul-21 @ 15:00 to Jul-21 @ 20:00
PROB30 TEMPO 2115/2120 TS
Conditions
  • Thunderstorm
Probable  (Probability 40%) Jul-22 @ 04:00 to Jul-22 @ 06:00
PROB40 2204/2206 4000 BR
Visibility Conditions
4,007 meters
  • Mist
TAF DIYO 210921Z 2109/2206 23007KT 8000 BKN010 PROB40 2114/2120 BKN012 FEW020CB PROB30 TEMPO 2115/2120 TS PROB40 2204/2206 4000 BR
Issued Jul-21 @ 09:21 UTC
(29 minutes ago)
Valid From Jul-21 @ 09:00 UTC
(50 minutes ago)
Valid To Jul-22 @ 06:00 UTC
(in 20 hours)
Jul-21 @ 09:00 - Jul-22 @ 06:00
Wind Visibility
230° at 7 knots 7,998 meters
Clouds
  • Broken at 1,000' AGL
Probability 40% Probable Jul-21 @ 14:00 - Jul-21 @ 20:00
Clouds
  • Broken at 1,200' AGL
  • Few at 2,000' AGL
Probability 30% Temporary Jul-21 @ 15:00 - Jul-21 @ 20:00
Conditions
  • Thunderstorm
Probability 40% Probable Jul-22 @ 04:00 - Jul-22 @ 06:00
Conditions
  • Mist